Time;durP1;ratioP1;P1;durP2;ratioP2;P2;SDS_P1;SDS_P2;PMS_P1;PMS_P2;Temp;Humidity;BMP_temperature;BMP_pressure;BME280_temperature;BME280_humidity;BME280_pressure;Samples;Min_cycle;Max_cycle;Signal;HPM_P1;HPM_P2
2023/05/31 00:02:26;;;;;;;4.70;3.65;;;;;;;;;;4952514;28;94670;-84
2023/05/31 00:04:52;;;;;;;7.82;4.28;;;;;;;;;;4970255;28;94478;-83
2023/05/31 00:07:19;;;;;;;8.25;4.50;;;;;;;;;;4952477;28;97908;-83
2023/05/31 00:09:46;;;;;;;10.27;4.85;;;;;;;;;;4958309;28;92538;-84
2023/05/31 00:12:13;;;;;;;7.05;4.18;;;;;;;;;;4956082;28;94882;-83
2023/05/31 00:14:39;;;;;;;4.45;3.95;;;;;;;;;;4976827;28;92413;-83
2023/05/31 00:17:06;;;;;;;8.43;4.28;;;;;;;;;;4957717;28;91715;-83
2023/05/31 00:19:53;;;;;;;8.30;3.95;;;;;;;;;;4977910;28;93887;-83
2023/05/31 00:22:19;;;;;;;9.48;4.85;;;;;;;;;;4970264;28;94340;-83
2023/05/31 00:24:46;;;;;;;5.45;3.95;;;;;;;;;;4969383;28;91815;-83
2023/05/31 00:27:12;;;;;;;4.93;4.00;;;;;;;;;;4954117;28;94861;-83
2023/05/31 00:29:39;;;;;;;7.80;4.78;;;;;;;;;;4969290;28;93228;-83
2023/05/31 00:32:06;;;;;;;8.82;4.15;;;;;;;;;;4968918;28;94823;-83
2023/05/31 00:34:33;;;;;;;12.13;5.07;;;;;;;;;;4980958;28;92030;-82
2023/05/31 00:36:59;;;;;;;11.77;5.80;;;;;;;;;;4971938;28;92435;-82
2023/05/31 00:39:26;;;;;;;5.25;4.00;;;;;;;;;;4975270;28;92291;-83
2023/05/31 00:41:52;;;;;;;10.50;4.60;;;;;;;;;;4945612;28;95661;-83
2023/05/31 00:44:19;;;;;;;8.13;4.53;;;;;;;;;;4946352;28;94784;-83
2023/05/31 00:46:46;;;;;;;7.75;4.60;;;;;;;;;;4939678;28;95761;-83
2023/05/31 00:49:12;;;;;;;7.95;4.93;;;;;;;;;;4957505;28;96037;-83
2023/05/31 00:51:39;;;;;;;11.57;5.15;;;;;;;;;;4953045;28;93738;-83
2023/05/31 00:54:07;;;;;;;6.70;4.60;;;;;;;;;;4969935;28;94910;-82
2023/05/31 00:56:34;;;;;;;6.28;4.53;;;;;;;;;;4958246;28;94642;-82
2023/05/31 00:59:01;;;;;;;14.75;5.57;;;;;;;;;;4952962;28;95326;-83
2023/05/31 01:01:32;;;;;;;6.85;4.28;;;;;;;;;;4954878;28;92812;-83
2023/05/31 01:04:01;;;;;;;6.85;4.43;;;;;;;;;;4957315;28;92797;-83
2023/05/31 01:06:35;;;;;;;8.13;5.13;;;;;;;;;;4961167;28;92326;-83
2023/05/31 01:09:04;;;;;;;9.88;4.22;;;;;;;;;;4946754;28;92475;-83
2023/05/31 01:11:37;;;;;;;11.02;4.60;;;;;;;;;;4957177;28;92230;-83
2023/05/31 01:14:17;;;;;;;12.15;5.18;;;;;;;;;;4961772;28;91948;-83
2023/05/31 01:17:16;;;;;;;7.45;4.82;;;;;;;;;;4958821;28;94542;-82
2023/05/31 01:19:48;;;;;;;6.53;4.10;;;;;;;;;;4942650;28;94211;-83
2023/05/31 01:22:28;;;;;;;8.32;4.38;;;;;;;;;;4941101;28;95832;-83
2023/05/31 01:25:13;;;;;;;8.43;4.57;;;;;;;;;;4959357;28;97083;-82
2023/05/31 01:27:41;;;;;;;9.77;4.18;;;;;;;;;;4954973;28;95656;-84
2023/05/31 01:30:09;;;;;;;6.68;4.55;;;;;;;;;;4950063;28;93453;-83
2023/05/31 01:32:36;;;;;;;8.20;4.47;;;;;;;;;;4965393;28;94516;-83
2023/05/31 01:35:04;;;;;;;8.82;4.55;;;;;;;;;;4961292;28;91912;-83
2023/05/31 01:37:30;;;;;;;12.20;5.22;;;;;;;;;;4966483;28;94423;-83
2023/05/31 01:39:57;;;;;;;13.20;4.88;;;;;;;;;;4962721;28;95222;-83
2023/05/31 01:42:24;;;;;;;11.60;4.82;;;;;;;;;;4937364;28;94240;-83
2023/05/31 01:44:51;;;;;;;7.53;4.88;;;;;;;;;;4957292;28;92363;-83
2023/05/31 01:47:20;;;;;;;6.22;4.38;;;;;;;;;;4957190;28;96494;-83
2023/05/31 01:49:47;;;;;;;9.77;4.95;;;;;;;;;;4941754;28;93031;-84
2023/05/31 01:52:15;;;;;;;5.40;4.68;;;;;;;;;;4942813;28;92922;-83
2023/05/31 01:54:41;;;;;;;8.55;4.75;;;;;;;;;;4932786;28;95115;-83
2023/05/31 01:57:08;;;;;;;10.95;4.97;;;;;;;;;;4943854;28;94728;-83
2023/05/31 01:59:36;;;;;;;9.95;5.28;;;;;;;;;;4952000;28;95303;-83
2023/05/31 02:02:05;;;;;;;8.00;4.05;;;;;;;;;;4961693;28;95216;-84
2023/05/31 02:04:32;;;;;;;8.38;3.80;;;;;;;;;;4965440;28;94294;-84
2023/05/31 02:07:00;;;;;;;5.13;4.15;;;;;;;;;;4963792;28;95638;-84
2023/05/31 02:09:26;;;;;;;7.72;5.45;;;;;;;;;;4951081;28;95447;-83
2023/05/31 02:11:54;;;;;;;7.28;5.22;;;;;;;;;;4965372;28;94832;-83
2023/05/31 02:14:20;;;;;;;6.55;4.93;;;;;;;;;;4966237;28;92592;-83
2023/05/31 02:16:47;;;;;;;5.35;4.65;;;;;;;;;;4966666;28;95830;-83
2023/05/31 02:19:13;;;;;;;7.45;4.80;;;;;;;;;;4962103;28;95528;-84
2023/05/31 02:21:40;;;;;;;6.13;4.15;;;;;;;;;;4962907;28;95717;-83
2023/05/31 02:24:08;;;;;;;7.22;5.03;;;;;;;;;;4970199;28;94730;-84
2023/05/31 02:26:35;;;;;;;12.18;5.63;;;;;;;;;;4966362;28;92032;-83
2023/05/31 02:29:02;;;;;;;8.10;4.47;;;;;;;;;;4971341;28;92041;-83
2023/05/31 02:31:29;;;;;;;9.75;3.95;;;;;;;;;;4969370;28;93493;-83
2023/05/31 02:33:56;;;;;;;6.55;4.88;;;;;;;;;;4967744;28;92525;-83
2023/05/31 02:36:29;;;;;;;8.18;4.90;;;;;;;;;;4983869;28;94959;-83
2023/05/31 02:38:56;;;;;;;9.13;4.90;;;;;;;;;;4941769;28;96783;-84
2023/05/31 02:41:22;;;;;;;5.30;4.45;;;;;;;;;;4967715;28;92060;-84
2023/05/31 02:43:49;;;;;;;7.78;4.93;;;;;;;;;;4982043;28;95940;-83
2023/05/31 02:46:15;;;;;;;5.82;4.55;;;;;;;;;;4977753;28;94964;-83
2023/05/31 02:48:43;;;;;;;13.75;4.80;;;;;;;;;;4958081;28;93979;-83
2023/05/31 02:51:09;;;;;;;9.82;5.13;;;;;;;;;;4953101;28;92703;-83
2023/05/31 02:53:59;;;;;;;12.25;5.60;;;;;;;;;;4941499;28;92880;-84
2023/05/31 02:56:27;;;;;;;10.00;4.50;;;;;;;;;;4967922;28;94464;-84
2023/05/31 02:59:08;;;;;;;10.55;5.18;;;;;;;;;;4969959;28;93459;-84
2023/05/31 03:01:41;;;;;;;10.45;5.20;;;;;;;;;;4959816;28;95420;-84
2023/05/31 03:04:18;;;;;;;10.25;4.70;;;;;;;;;;4969390;28;92364;-84
2023/05/31 03:06:46;;;;;;;7.68;4.40;;;;;;;;;;4969607;28;92388;-84
2023/05/31 03:09:16;;;;;;;8.65;5.05;;;;;;;;;;4971824;28;94569;-84
2023/05/31 03:11:44;;;;;;;5.53;4.18;;;;;;;;;;4959804;28;94023;-84
2023/05/31 03:14:11;;;;;;;8.80;5.55;;;;;;;;;;4968204;28;92291;-84
2023/05/31 03:16:46;;;;;;;9.35;5.25;;;;;;;;;;4979659;28;94169;-84
2023/05/31 03:19:13;;;;;;;6.28;5.28;;;;;;;;;;4968781;28;93834;-84
2023/05/31 03:21:42;;;;;;;11.15;5.50;;;;;;;;;;4967507;28;94333;-84
2023/05/31 03:24:09;;;;;;;8.60;5.38;;;;;;;;;;4954904;28;94416;-84
2023/05/31 03:26:36;;;;;;;6.57;5.03;;;;;;;;;;4970840;28;94546;-84
2023/05/31 03:29:02;;;;;;;11.73;5.70;;;;;;;;;;4967520;28;94633;-84
2023/05/31 03:31:29;;;;;;;7.70;4.97;;;;;;;;;;4974480;28;95109;-84
2023/05/31 03:33:57;;;;;;;9.57;5.40;;;;;;;;;;4978938;28;92407;-84
2023/05/31 03:36:25;;;;;;;8.60;4.97;;;;;;;;;;4973601;28;95396;-84
2023/05/31 03:38:51;;;;;;;7.78;5.03;;;;;;;;;;4971191;28;94268;-84
2023/05/31 03:41:18;;;;;;;9.65;5.75;;;;;;;;;;4971715;28;94528;-84
2023/05/31 03:43:45;;;;;;;10.45;5.57;;;;;;;;;;4968617;28;93785;-84
2023/05/31 03:46:12;;;;;;;8.27;5.28;;;;;;;;;;4969671;28;93668;-84
2023/05/31 03:48:38;;;;;;;8.68;6.03;;;;;;;;;;4969190;28;92483;-84
2023/05/31 03:51:05;;;;;;;7.72;5.70;;;;;;;;;;4970935;28;94804;-84
2023/05/31 03:53:32;;;;;;;9.10;5.70;;;;;;;;;;4968930;28;95912;-84
2023/05/31 03:55:59;;;;;;;8.63;5.57;;;;;;;;;;4967023;28;94503;-83
2023/05/31 03:58:26;;;;;;;15.38;6.15;;;;;;;;;;4962803;28;94239;-84
2023/05/31 04:00:53;;;;;;;13.98;6.53;;;;;;;;;;4951749;28;94114;-84
2023/05/31 04:03:19;;;;;;;8.57;5.53;;;;;;;;;;4966197;28;94725;-84
2023/05/31 04:05:48;;;;;;;8.30;6.03;;;;;;;;;;4962831;28;94121;-83
2023/05/31 04:08:16;;;;;;;7.90;6.20;;;;;;;;;;4951273;28;92634;-84
2023/05/31 04:10:44;;;;;;;15.23;6.55;;;;;;;;;;4966278;28;92339;-84
2023/05/31 04:13:10;;;;;;;12.00;6.03;;;;;;;;;;4973799;28;93011;-84
2023/05/31 04:15:38;;;;;;;14.45;7.20;;;;;;;;;;4971561;28;94717;-84
2023/05/31 04:18:05;;;;;;;10.38;6.63;;;;;;;;;;4955303;28;96334;-84
2023/05/31 04:20:32;;;;;;;16.00;6.43;;;;;;;;;;4964562;28;95086;-83
2023/05/31 04:22:59;;;;;;;12.15;5.57;;;;;;;;;;4965451;28;94374;-84
2023/05/31 04:25:27;;;;;;;9.30;6.20;;;;;;;;;;4963422;28;93876;-84
2023/05/31 04:27:54;;;;;;;12.38;7.07;;;;;;;;;;4969434;28;94697;-83
2023/05/31 04:30:23;;;;;;;9.50;6.68;;;;;;;;;;4956575;28;94375;-83
2023/05/31 04:32:52;;;;;;;15.25;7.20;;;;;;;;;;4965417;28;93160;-83
2023/05/31 04:35:19;;;;;;;8.98;6.88;;;;;;;;;;4969154;28;94989;-83
2023/05/31 04:37:52;;;;;;;13.23;7.95;;;;;;;;;;4964479;28;92146;-83
2023/05/31 04:40:20;;;;;;;14.75;7.05;;;;;;;;;;4962830;28;94816;-83
2023/05/31 04:42:46;;;;;;;9.70;6.32;;;;;;;;;;4968960;28;92108;-83
2023/05/31 04:45:23;;;;;;;9.50;6.50;;;;;;;;;;4936077;28;94713;-83
2023/05/31 04:47:51;;;;;;;12.80;7.78;;;;;;;;;;4943833;28;95775;-83
2023/05/31 04:50:19;;;;;;;10.55;6.45;;;;;;;;;;4958710;28;95336;-83
2023/05/31 04:52:46;;;;;;;11.82;6.97;;;;;;;;;;4950939;28;95045;-84
2023/05/31 04:55:13;;;;;;;11.27;6.07;;;;;;;;;;4937184;28;93649;-83
2023/05/31 04:57:40;;;;;;;11.75;7.38;;;;;;;;;;4963803;28;92134;-83
2023/05/31 05:00:10;;;;;;;12.50;8.10;;;;;;;;;;4953662;28;94371;-83
2023/05/31 05:02:43;;;;;;;12.07;6.85;;;;;;;;;;4940233;28;92965;-83
2023/05/31 05:05:11;;;;;;;14.77;8.10;;;;;;;;;;4945088;28;95953;-84
2023/05/31 05:07:39;;;;;;;13.02;7.70;;;;;;;;;;4948024;28;95533;-83
2023/05/31 05:10:06;;;;;;;13.55;7.10;;;;;;;;;;4973613;28;94339;-84
2023/05/31 05:12:33;;;;;;;13.93;7.35;;;;;;;;;;4959802;28;92504;-83
2023/05/31 05:15:00;;;;;;;15.65;8.10;;;;;;;;;;4959986;28;94366;-84
2023/05/31 05:17:28;;;;;;;18.70;8.73;;;;;;;;;;4958708;28;96654;-84
2023/05/31 05:19:54;;;;;;;12.43;7.82;;;;;;;;;;4968497;28;94316;-85
2023/05/31 05:22:22;;;;;;;14.88;7.85;;;;;;;;;;4937724;28;94080;-84
2023/05/31 05:24:48;;;;;;;17.23;8.90;;;;;;;;;;4956601;28;93834;-84
2023/05/31 05:27:16;;;;;;;16.65;7.30;;;;;;;;;;4955272;28;94942;-84
2023/05/31 05:29:45;;;;;;;14.75;7.93;;;;;;;;;;4954938;28;94861;-84
2023/05/31 05:32:13;;;;;;;17.67;8.55;;;;;;;;;;4945401;28;96265;-84
2023/05/31 05:34:40;;;;;;;21.20;9.10;;;;;;;;;;4962597;28;94321;-84
2023/05/31 05:37:07;;;;;;;19.50;7.78;;;;;;;;;;4942568;28;93873;-84
2023/05/31 05:39:34;;;;;;;10.50;7.40;;;;;;;;;;4943459;28;96316;-85
2023/05/31 05:42:02;;;;;;;14.93;8.13;;;;;;;;;;4963045;28;94428;-84
2023/05/31 05:44:34;;;;;;;16.42;8.63;;;;;;;;;;4939838;28;92988;-84
2023/05/31 05:47:02;;;;;;;18.27;9.23;;;;;;;;;;4952717;28;91743;-83
2023/05/31 05:49:33;;;;;;;13.82;8.20;;;;;;;;;;4953876;28;94468;-83
2023/05/31 05:52:00;;;;;;;16.55;8.68;;;;;;;;;;4954518;28;94166;-84
2023/05/31 05:54:26;;;;;;;22.33;9.05;;;;;;;;;;4932942;28;97255;-84
2023/05/31 05:56:53;;;;;;;12.82;8.23;;;;;;;;;;4950281;28;95636;-84
2023/05/31 05:59:22;;;;;;;13.27;8.63;;;;;;;;;;4954867;28;94162;-84
2023/05/31 06:01:57;;;;;;;17.48;9.40;;;;;;;;;;4965109;28;94751;-84
2023/05/31 06:04:24;;;;;;;17.40;8.90;;;;;;;;;;4969293;28;93711;-84
2023/05/31 06:06:51;;;;;;;19.02;9.73;;;;;;;;;;4957766;28;94059;-84
2023/05/31 06:09:18;;;;;;;14.55;8.48;;;;;;;;;;4959917;28;93057;-84
2023/05/31 06:11:44;;;;;;;15.05;8.50;;;;;;;;;;4947294;28;93925;-85
2023/05/31 06:14:12;;;;;;;15.07;8.48;;;;;;;;;;4950991;28;94390;-85
2023/05/31 06:16:43;;;;;;;14.00;8.68;;;;;;;;;;4974330;28;94588;-84
2023/05/31 06:19:11;;;;;;;19.02;8.88;;;;;;;;;;4977290;28;94547;-84
2023/05/31 06:21:37;;;;;;;17.08;8.30;;;;;;;;;;4976568;28;91906;-85
2023/05/31 06:24:04;;;;;;;17.40;8.85;;;;;;;;;;4955322;28;93077;-85
2023/05/31 06:26:31;;;;;;;16.58;8.82;;;;;;;;;;4975727;28;92398;-85
2023/05/31 06:29:00;;;;;;;23.45;8.73;;;;;;;;;;4954326;28;94847;-85
2023/05/31 06:31:45;;;;;;;22.65;9.40;;;;;;;;;;4970168;28;92331;-85
2023/05/31 06:34:13;;;;;;;17.95;8.98;;;;;;;;;;4962627;28;94443;-84
2023/05/31 06:36:40;;;;;;;15.27;9.07;;;;;;;;;;4973328;28;94249;-85
2023/05/31 06:39:07;;;;;;;18.63;9.02;;;;;;;;;;4973078;28;92287;-85
2023/05/31 06:41:34;;;;;;;19.33;9.00;;;;;;;;;;4968509;28;94930;-85
2023/05/31 06:44:16;;;;;;;19.73;9.07;;;;;;;;;;4959830;28;94754;-85
2023/05/31 06:46:50;;;;;;;16.27;8.88;;;;;;;;;;4964280;28;98604;-86
2023/05/31 06:49:48;;;;;;;19.15;9.60;;;;;;;;;;4969799;28;92186;-86
2023/05/31 06:52:50;;;;;;;15.02;8.57;;;;;;;;;;4961442;28;92430;-85
2023/05/31 06:55:30;;;;;;;18.65;9.20;;;;;;;;;;4958737;28;93253;-85
2023/05/31 06:57:58;;;;;;;12.70;8.55;;;;;;;;;;4968733;28;94167;-85
2023/05/31 07:00:25;;;;;;;14.32;8.88;;;;;;;;;;4964271;28;92432;-85
2023/05/31 07:02:52;;;;;;;13.82;8.05;;;;;;;;;;4963327;28;93875;-85
2023/05/31 07:05:19;;;;;;;20.83;9.30;;;;;;;;;;4963572;28;95537;-85
2023/05/31 07:07:47;;;;;;;15.10;8.23;;;;;;;;;;4953674;28;94387;-85
2023/05/31 07:10:15;;;;;;;14.38;7.97;;;;;;;;;;4964198;28;94510;-85
2023/05/31 07:12:42;;;;;;;13.40;8.23;;;;;;;;;;4967692;28;95328;-86
2023/05/31 07:15:09;;;;;;;18.45;8.38;;;;;;;;;;4973414;28;95706;-85
2023/05/31 07:17:36;;;;;;;16.83;7.45;;;;;;;;;;4961896;28;92564;-86
2023/05/31 07:20:05;;;;;;;16.73;8.27;;;;;;;;;;4964814;28;94750;-84
2023/05/31 07:22:32;;;;;;;15.95;8.02;;;;;;;;;;4957290;28;93109;-85
2023/05/31 07:24:58;;;;;;;14.07;7.18;;;;;;;;;;4960020;28;91980;-85
2023/05/31 07:27:25;;;;;;;16.20;7.32;;;;;;;;;;4940853;28;93844;-85
2023/05/31 07:29:52;;;;;;;17.98;8.18;;;;;;;;;;4972555;28;92421;-83
2023/05/31 07:32:18;;;;;;;15.55;7.03;;;;;;;;;;4957089;28;92219;-85
2023/05/31 07:34:45;;;;;;;11.65;7.07;;;;;;;;;;4963096;28;94683;-85
2023/05/31 07:37:32;;;;;;;10.63;7.00;;;;;;;;;;4964286;28;93127;-85
2023/05/31 07:39:59;;;;;;;19.33;7.10;;;;;;;;;;4969672;28;94588;-86
2023/05/31 07:42:26;;;;;;;15.18;7.25;;;;;;;;;;4951142;28;94754;-85
2023/05/31 07:44:53;;;;;;;10.88;7.30;;;;;;;;;;4944247;28;94765;-85
2023/05/31 07:47:20;;;;;;;13.48;6.68;;;;;;;;;;4964818;28;92474;-86
2023/05/31 07:49:47;;;;;;;22.40;7.68;;;;;;;;;;4962248;28;92351;-85
2023/05/31 07:52:14;;;;;;;8.93;6.30;;;;;;;;;;4966558;28;93073;-86
2023/05/31 07:54:41;;;;;;;15.57;7.18;;;;;;;;;;4963932;28;93596;-85
2023/05/31 07:57:07;;;;;;;20.58;7.10;;;;;;;;;;4955704;28;92717;-84
2023/05/31 07:59:34;;;;;;;12.30;6.93;;;;;;;;;;4953731;28;95050;-84
2023/05/31 08:02:01;;;;;;;9.80;6.50;;;;;;;;;;4955697;28;92277;-85
2023/05/31 08:04:27;;;;;;;15.82;7.43;;;;;;;;;;4940262;28;94135;-85
2023/05/31 08:06:54;;;;;;;15.35;6.72;;;;;;;;;;4951149;28;93419;-85
2023/05/31 08:09:20;;;;;;;16.65;7.00;;;;;;;;;;4972580;28;92334;-86
2023/05/31 08:11:47;;;;;;;12.43;6.18;;;;;;;;;;4961865;28;92482;-84
2023/05/31 08:14:14;;;;;;;13.18;7.57;;;;;;;;;;4946366;28;94584;-84
2023/05/31 08:16:40;;;;;;;11.43;5.90;;;;;;;;;;4959323;28;95285;-85
2023/05/31 08:19:07;;;;;;;12.60;5.68;;;;;;;;;;4959903;28;92291;-84
2023/05/31 08:21:36;;;;;;;13.48;5.75;;;;;;;;;;4959225;28;93196;-84
2023/05/31 08:24:07;;;;;;;16.73;5.53;;;;;;;;;;4958062;28;94943;-84
2023/05/31 08:26:33;;;;;;;16.33;6.82;;;;;;;;;;4957877;28;93965;-83
2023/05/31 08:29:00;;;;;;;13.95;6.28;;;;;;;;;;4964482;28;92539;-83
2023/05/31 08:31:27;;;;;;;15.95;6.55;;;;;;;;;;4952779;28;92573;-83
2023/05/31 08:33:57;;;;;;;13.38;7.30;;;;;;;;;;4960691;28;92300;-84
2023/05/31 08:36:25;;;;;;;14.40;6.45;;;;;;;;;;4971760;28;92696;-84
2023/05/31 08:38:51;;;;;;;19.33;7.60;;;;;;;;;;4972865;28;92933;-84
2023/05/31 08:41:18;;;;;;;13.90;6.35;;;;;;;;;;4969466;28;91357;-84
2023/05/31 08:43:46;;;;;;;14.10;7.70;;;;;;;;;;4959129;28;92313;-84
2023/05/31 08:46:14;;;;;;;11.05;6.38;;;;;;;;;;4961259;28;93925;-84
2023/05/31 08:48:43;;;;;;;14.95;7.00;;;;;;;;;;4960193;28;94694;-84
2023/05/31 08:51:10;;;;;;;14.63;7.05;;;;;;;;;;4961274;28;94057;-84
2023/05/31 08:53:36;;;;;;;20.00;6.78;;;;;;;;;;4959589;28;92319;-85
2023/05/31 08:56:06;;;;;;;14.70;6.88;;;;;;;;;;4959258;28;93119;-85
2023/05/31 08:58:35;;;;;;;17.52;7.60;;;;;;;;;;4963001;28;92280;-85
2023/05/31 09:01:02;;;;;;;14.68;6.95;;;;;;;;;;4947207;28;94132;-85
2023/05/31 09:03:30;;;;;;;16.77;6.82;;;;;;;;;;4956780;28;93856;-86
2023/05/31 09:05:57;;;;;;;19.05;7.32;;;;;;;;;;4961866;28;92112;-86
2023/05/31 09:08:24;;;;;;;16.60;6.88;;;;;;;;;;4948289;28;94864;-87
2023/05/31 09:10:51;;;;;;;17.25;7.07;;;;;;;;;;4975828;28;92481;-86
2023/05/31 09:13:18;;;;;;;11.02;6.10;;;;;;;;;;4948755;28;94952;-85
2023/05/31 09:15:46;;;;;;;15.88;7.20;;;;;;;;;;4960142;28;95274;-86
2023/05/31 09:18:15;;;;;;;14.48;6.85;;;;;;;;;;4956418;28;96038;-86
2023/05/31 09:20:42;;;;;;;14.25;6.97;;;;;;;;;;4943334;28;92421;-86
2023/05/31 09:23:11;;;;;;;11.80;6.63;;;;;;;;;;4958233;28;92425;-85
2023/05/31 09:25:51;;;;;;;17.20;7.65;;;;;;;;;;4951909;28;94722;-86
2023/05/31 09:28:19;;;;;;;12.10;6.72;;;;;;;;;;4954078;28;93215;-86
2023/05/31 09:30:46;;;;;;;16.65;6.40;;;;;;;;;;4959421;28;92158;-86
2023/05/31 09:33:13;;;;;;;10.95;6.22;;;;;;;;;;4957141;28;92436;-85
2023/05/31 09:35:55;;;;;;;15.80;6.75;;;;;;;;;;4955237;28;93020;-86
2023/05/31 09:38:30;;;;;;;13.32;6.25;;;;;;;;;;4953318;28;95120;-86
2023/05/31 09:41:10;;;;;;;13.68;7.78;;;;;;;;;;4956638;28;95170;-86
2023/05/31 09:43:40;;;;;;;13.73;7.10;;;;;;;;;;4954357;28;94881;-86
2023/05/31 09:46:11;;;;;;;22.20;7.20;;;;;;;;;;4939639;28;94125;-86
2023/05/31 09:48:37;;;;;;;21.83;7.35;;;;;;;;;;4951248;28;93171;-88
2023/05/31 09:51:08;;;;;;;13.93;6.82;;;;;;;;;;4948473;28;94530;-86
2023/05/31 09:53:39;;;;;;;14.43;6.75;;;;;;;;;;4962689;28;95694;-86
2023/05/31 09:56:10;;;;;;;17.52;7.18;;;;;;;;;;4956121;28;91923;-84
2023/05/31 09:58:37;;;;;;;10.97;6.47;;;;;;;;;;4958659;28;94315;-86
2023/05/31 10:01:04;;;;;;;10.43;6.25;;;;;;;;;;4957985;28;94223;-86
2023/05/31 10:03:31;;;;;;;9.75;6.38;;;;;;;;;;4943818;28;94664;-86
2023/05/31 10:05:58;;;;;;;21.15;6.78;;;;;;;;;;4960512;28;92422;-85
2023/05/31 10:08:24;;;;;;;19.00;7.07;;;;;;;;;;4962645;28;93108;-86
2023/05/31 10:10:53;;;;;;;18.67;6.82;;;;;;;;;;4963102;28;92770;-86
2023/05/31 10:13:20;;;;;;;13.70;6.30;;;;;;;;;;4959663;28;94376;-86
2023/05/31 10:15:49;;;;;;;21.08;7.20;;;;;;;;;;4957745;28;94695;-87
2023/05/31 10:18:16;;;;;;;13.25;6.68;;;;;;;;;;4958755;28;92747;-86
2023/05/31 10:20:48;;;;;;;14.75;5.75;;;;;;;;;;4957449;28;91926;-87
2023/05/31 10:23:22;;;;;;;16.10;6.65;;;;;;;;;;4950240;28;95287;-86
2023/05/31 10:26:00;;;;;;;11.65;5.95;;;;;;;;;;4956957;28;92532;-86
2023/05/31 10:28:28;;;;;;;12.82;6.82;;;;;;;;;;4952940;28;95280;-87
2023/05/31 10:30:56;;;;;;;13.02;5.90;;;;;;;;;;4958852;28;92856;-86
2023/05/31 10:33:24;;;;;;;10.77;5.78;;;;;;;;;;4958444;28;93965;-86
2023/05/31 10:35:51;;;;;;;17.38;6.72;;;;;;;;;;4951404;28;96339;-87
2023/05/31 10:38:20;;;;;;;16.23;6.43;;;;;;;;;;4954010;28;92507;-87
2023/05/31 10:40:53;;;;;;;13.35;6.13;;;;;;;;;;4955907;28;93423;-86
2023/05/31 10:43:20;;;;;;;12.50;6.40;;;;;;;;;;4957683;28;92772;-86
2023/05/31 10:45:50;;;;;;;15.25;6.72;;;;;;;;;;4958703;28;94659;-84
2023/05/31 10:48:26;;;;;;;15.68;5.65;;;;;;;;;;4959215;28;92930;-86
2023/05/31 10:50:56;;;;;;;23.02;6.18;;;;;;;;;;4965004;28;92614;-84
2023/05/31 10:53:30;;;;;;;15.57;5.68;;;;;;;;;;4961528;28;94734;-86
2023/05/31 10:56:00;;;;;;;10.80;5.53;;;;;;;;;;4954447;28;92463;-85
2023/05/31 10:58:47;;;;;;;13.70;5.53;;;;;;;;;;4961832;28;92285;-85
2023/05/31 11:01:14;;;;;;;13.70;5.40;;;;;;;;;;4956672;28;92748;-85
2023/05/31 11:03:48;;;;;;;14.20;5.82;;;;;;;;;;4964430;28;93251;-85
2023/05/31 11:06:17;;;;;;;14.57;5.55;;;;;;;;;;4964878;28;92479;-85
2023/05/31 11:09:10;;;;;;;16.23;5.00;;;;;;;;;;4963652;28;92512;-85
2023/05/31 11:11:37;;;;;;;11.32;5.30;;;;;;;;;;4982284;28;95229;-85
2023/05/31 11:14:06;;;;;;;9.65;4.35;;;;;;;;;;4954026;28;94072;-86
2023/05/31 11:16:53;;;;;;;10.50;4.80;;;;;;;;;;4972027;28;95694;-85
2023/05/31 11:19:21;;;;;;;7.80;4.53;;;;;;;;;;4963435;28;95232;-85
2023/05/31 11:21:55;;;;;;;10.43;5.20;;;;;;;;;;4957171;28;93907;-85
2023/05/31 11:24:26;;;;;;;12.77;5.20;;;;;;;;;;4949970;28;94594;-85
2023/05/31 11:26:53;;;;;;;10.98;5.20;;;;;;;;;;4955475;28;92565;-86
2023/05/31 11:29:19;;;;;;;74.65;7.65;;;;;;;;;;4955349;28;93682;-86
2023/05/31 11:31:54;;;;;;;11.93;4.47;;;;;;;;;;4958898;28;92652;-86
2023/05/31 11:34:23;;;;;;;11.27;4.63;;;;;;;;;;4962840;28;94976;-86
2023/05/31 11:36:50;;;;;;;12.13;4.57;;;;;;;;;;4954334;28;92126;-85
2023/05/31 11:39:20;;;;;;;14.15;4.00;;;;;;;;;;4957060;28;92374;-85
2023/05/31 11:41:47;;;;;;;11.18;4.35;;;;;;;;;;4965396;28;92355;-83
2023/05/31 11:44:15;;;;;;;12.63;4.90;;;;;;;;;;4956026;28;97489;-85
2023/05/31 11:46:45;;;;;;;13.57;4.22;;;;;;;;;;4957445;28;91913;-83
2023/05/31 11:49:13;;;;;;;13.82;4.38;;;;;;;;;;4947756;28;93631;-82
2023/05/31 11:51:43;;;;;;;13.00;4.82;;;;;;;;;;4962068;28;93541;-83
2023/05/31 11:54:14;;;;;;;14.93;4.67;;;;;;;;;;4964075;28;93379;-84
2023/05/31 11:56:41;;;;;;;9.80;4.90;;;;;;;;;;4979451;28;92383;-82
2023/05/31 11:59:08;;;;;;;10.98;4.35;;;;;;;;;;4968771;28;93667;-82
2023/05/31 12:01:35;;;;;;;11.85;4.63;;;;;;;;;;4964854;28;93966;-82
2023/05/31 12:04:02;;;;;;;12.60;4.28;;;;;;;;;;4955148;28;92517;-83
2023/05/31 12:06:29;;;;;;;9.50;3.83;;;;;;;;;;4959145;28;92478;-83
2023/05/31 12:08:55;;;;;;;12.77;3.90;;;;;;;;;;4949408;28;94746;-83
2023/05/31 12:11:22;;;;;;;16.05;4.40;;;;;;;;;;4954239;28;93045;-83
2023/05/31 12:13:48;;;;;;;13.90;3.95;;;;;;;;;;4960886;28;94539;-83
2023/05/31 12:16:15;;;;;;;20.75;4.15;;;;;;;;;;4962413;28;95616;-83
2023/05/31 12:18:42;;;;;;;12.20;3.92;;;;;;;;;;4948633;28;92091;-82
2023/05/31 12:21:11;;;;;;;11.23;3.58;;;;;;;;;;4965066;28;92500;-83
2023/05/31 12:23:50;;;;;;;9.23;3.30;;;;;;;;;;4974321;28;92466;-83
2023/05/31 12:26:17;;;;;;;13.40;3.70;;;;;;;;;;4961098;28;94673;-83
2023/05/31 12:28:43;;;;;;;9.95;3.80;;;;;;;;;;4952533;28;92481;-82
2023/05/31 12:31:10;;;;;;;11.15;3.03;;;;;;;;;;4960908;28;95879;-83
2023/05/31 12:33:36;;;;;;;12.57;3.47;;;;;;;;;;4952383;28;94838;-82
2023/05/31 12:36:03;;;;;;;14.48;3.95;;;;;;;;;;4961066;28;94003;-83
2023/05/31 12:38:31;;;;;;;9.82;3.50;;;;;;;;;;4959593;28;94541;-83
2023/05/31 12:41:01;;;;;;;6.40;3.22;;;;;;;;;;4953973;28;95402;-83
2023/05/31 12:43:29;;;;;;;14.70;3.67;;;;;;;;;;4952645;28;92716;-83
2023/05/31 12:45:56;;;;;;;9.02;3.65;;;;;;;;;;4949829;28;92502;-83
2023/05/31 12:48:24;;;;;;;7.28;3.20;;;;;;;;;;4934921;28;94117;-83
2023/05/31 12:50:51;;;;;;;12.90;2.95;;;;;;;;;;4944545;28;93956;-83
2023/05/31 12:53:17;;;;;;;9.98;2.95;;;;;;;;;;4955660;28;94804;-83
2023/05/31 12:55:45;;;;;;;8.10;2.88;;;;;;;;;;4966870;28;92844;-84
2023/05/31 12:58:11;;;;;;;12.15;4.38;;;;;;;;;;4958178;28;94826;-83
2023/05/31 13:00:38;;;;;;;11.02;3.83;;;;;;;;;;4944958;28;95569;-83
2023/05/31 13:03:12;;;;;;;10.73;3.13;;;;;;;;;;4949251;28;93209;-83
2023/05/31 13:05:40;;;;;;;7.38;3.25;;;;;;;;;;4947134;28;92416;-82
2023/05/31 13:08:06;;;;;;;8.27;3.17;;;;;;;;;;4942264;28;92437;-83
2023/05/31 13:10:35;;;;;;;13.02;3.50;;;;;;;;;;4947009;28;92456;-83
2023/05/31 13:13:03;;;;;;;6.70;3.47;;;;;;;;;;4937005;28;92334;-83
2023/05/31 13:15:30;;;;;;;12.65;2.97;;;;;;;;;;4955428;28;92086;-83
2023/05/31 13:17:57;;;;;;;7.28;3.03;;;;;;;;;;4958734;28;94556;-83
2023/05/31 13:20:28;;;;;;;8.88;3.60;;;;;;;;;;4962892;28;95255;-82
2023/05/31 13:22:54;;;;;;;12.30;3.72;;;;;;;;;;4959877;28;95578;-82
2023/05/31 13:25:24;;;;;;;10.60;3.22;;;;;;;;;;4948622;28;92502;-83
2023/05/31 13:27:51;;;;;;;4.90;2.45;;;;;;;;;;4952935;28;94388;-83
2023/05/31 13:30:17;;;;;;;8.68;2.88;;;;;;;;;;4959597;28;92478;-83
2023/05/31 13:32:44;;;;;;;5.63;2.75;;;;;;;;;;4952439;28;92809;-83
2023/05/31 13:35:12;;;;;;;10.13;3.63;;;;;;;;;;4958130;28;92035;-84
2023/05/31 13:37:38;;;;;;;5.53;2.42;;;;;;;;;;4954737;28;94553;-83
2023/05/31 13:40:06;;;;;;;8.50;3.38;;;;;;;;;;4954042;28;92113;-83
2023/05/31 13:42:33;;;;;;;22.25;3.78;;;;;;;;;;4950981;28;92423;-83
2023/05/31 13:45:03;;;;;;;13.13;4.13;;;;;;;;;;4950077;28;92273;-84
2023/05/31 13:47:29;;;;;;;12.23;4.20;;;;;;;;;;4951011;28;95015;-84
2023/05/31 13:50:02;;;;;;;14.15;4.97;;;;;;;;;;4951117;28;92621;-86
2023/05/31 13:52:29;;;;;;;13.60;4.00;;;;;;;;;;4961492;28;94640;-85
2023/05/31 13:54:56;;;;;;;10.32;3.47;;;;;;;;;;4948985;28;93046;-84
2023/05/31 13:57:22;;;;;;;5.55;2.50;;;;;;;;;;4952274;28;92518;-85
2023/05/31 13:59:49;;;;;;;9.27;3.22;;;;;;;;;;4953738;28;92699;-85
2023/05/31 14:02:16;;;;;;;15.95;3.95;;;;;;;;;;4951904;28;92330;-84
2023/05/31 14:04:42;;;;;;;7.80;3.80;;;;;;;;;;4956250;28;92047;-84
2023/05/31 14:07:12;;;;;;;6.68;3.00;;;;;;;;;;4954343;28;93106;-84
2023/05/31 14:09:40;;;;;;;6.38;2.60;;;;;;;;;;4956616;28;92428;-83
2023/05/31 14:12:07;;;;;;;11.93;3.15;;;;;;;;;;4967873;28;94784;-84
2023/05/31 14:14:34;;;;;;;14.40;3.92;;;;;;;;;;4961914;28;93968;-84
2023/05/31 14:17:00;;;;;;;12.38;4.30;;;;;;;;;;4958853;28;93049;-83
2023/05/31 14:19:27;;;;;;;13.88;3.80;;;;;;;;;;4951192;28;92127;-83
2023/05/31 14:21:54;;;;;;;12.05;3.95;;;;;;;;;;4957246;28;92360;-84
2023/05/31 14:24:21;;;;;;;15.02;3.72;;;;;;;;;;4956476;28;92309;-84
2023/05/31 14:26:47;;;;;;;11.80;4.22;;;;;;;;;;4959825;28;92378;-84
2023/05/31 14:29:14;;;;;;;13.77;4.30;;;;;;;;;;4961082;28;91505;-84
2023/05/31 14:31:42;;;;;;;8.60;3.50;;;;;;;;;;4974974;28;93603;-84
2023/05/31 14:34:09;;;;;;;8.68;3.70;;;;;;;;;;4968035;28;92367;-82
2023/05/31 14:36:40;;;;;;;14.00;4.07;;;;;;;;;;4953071;28;94447;-83
2023/05/31 14:39:08;;;;;;;;;;;;;;;;;;4971103;28;92491;-83
2023/05/31 14:41:35;;;;;;;11.20;4.05;;;;;;;;;;4967599;28;121949;-83
2023/05/31 14:44:02;;;;;;;17.40;4.57;;;;;;;;;;4955070;28;92284;-83